Time;durP1;ratioP1;P1;durP2;ratioP2;P2;SDS_P1;SDS_P2;PMS_P1;PMS_P2;Temp;Humidity;BMP_temperature;BMP_pressure;BME280_temperature;BME280_humidity;BME280_pressure;Samples;Min_cycle;Max_cycle;Signal;HPM_P1;HPM_P2
2022/04/27 00:00:21;;;;;;;;;;;8.80;99.90;;;;;;5022592;28;19956;-71
2022/04/27 00:02:46;;;;;;;;;;;8.80;99.90;;;;;;5054361;28;19909;-70
2022/04/27 00:05:12;;;;;;;;;;;8.90;99.90;;;;;;5020475;28;19916;-70
2022/04/27 00:07:38;;;;;;;;;;;8.90;99.90;;;;;;5022474;28;19909;-70
2022/04/27 00:10:05;;;;;;;;;;;8.90;99.90;;;;;;5022634;28;19956;-70
2022/04/27 00:12:32;;;;;;;;;;;8.90;99.90;;;;;;5053946;28;19909;-72
2022/04/27 00:14:57;;;;;;;;;;;9.00;99.90;;;;;;5021518;28;19940;-73
2022/04/27 00:17:23;;;;;;;;;;;9.10;99.90;;;;;;5022299;28;19925;-76
2022/04/27 00:19:49;;;;;;;;;;;9.20;99.90;;;;;;5022678;28;19921;-77
2022/04/27 00:22:14;;;;;;;;;;;9.20;99.90;;;;;;5022048;28;19909;-75
2022/04/27 00:24:40;;;;;;;;;;;9.10;99.90;;;;;;5037996;28;19917;-76
2022/04/27 00:27:06;;;;;;;;;;;9.00;99.90;;;;;;5022143;28;19910;-76
2022/04/27 00:29:32;;;;;;;;;;;8.90;99.90;;;;;;5022448;28;19920;-75
2022/04/27 00:31:58;;;;;;;;;;;8.90;99.90;;;;;;5054279;28;19909;-75
2022/04/27 00:34:23;;;;;;;;;;;8.90;99.90;;;;;;5022386;28;19940;-76
2022/04/27 00:36:49;;;;;;;;;;;8.90;99.90;;;;;;5022194;28;19909;-76
2022/04/27 00:39:16;;;;;;;;;;;8.80;99.90;;;;;;5022430;28;19910;-75
2022/04/27 00:41:58;;;;;;;;;;;8.90;99.90;;;;;;5035450;28;20200;-73
2022/04/27 00:44:33;;;;;;;;;;;8.90;99.90;;;;;;5043707;28;19972;-73
2022/04/27 00:47:00;;;;;;;;;;;8.80;99.90;;;;;;5044637;28;19917;-73
2022/04/27 00:49:26;;;;;;;;;;;8.90;99.90;;;;;;5045531;28;19941;-73
2022/04/27 00:51:52;;;;;;;;;;;8.80;99.90;;;;;;5044186;28;19909;-75
2022/04/27 00:54:22;;;;;;;;;;;8.70;99.90;;;;;;5044538;28;20235;-76
2022/04/27 00:56:48;;;;;;;;;;;8.80;99.90;;;;;;5044370;28;19909;-74
2022/04/27 00:59:14;;;;;;;;;;;8.80;99.90;;;;;;5044451;28;19980;-73
2022/04/27 01:01:40;;;;;;;;;;;8.70;99.90;;;;;;5044129;28;20227;-74
2022/04/27 01:04:07;;;;;;;;;;;8.70;99.90;;;;;;5045539;28;19909;-73
2022/04/27 01:06:39;;;;;;;;;;;8.80;99.90;;;;;;5028378;28;19916;-73
2022/04/27 01:09:05;;;;;;;;;;;8.80;99.90;;;;;;5057563;28;19913;-75
2022/04/27 01:11:34;;;;;;;;;;;8.80;99.90;;;;;;5024174;28;20089;-75
2022/04/27 01:14:00;;;;;;;;;;;8.70;99.90;;;;;;5057580;28;20256;-75
2022/04/27 01:16:25;;;;;;;;;;;8.70;99.90;;;;;;5025318;28;19956;-76
2022/04/27 01:18:51;;;;;;;;;;;8.80;99.90;;;;;;5025295;28;19916;-73
2022/04/27 01:21:17;;;;;;;;;;;8.70;99.90;;;;;;5024532;28;19917;-73
2022/04/27 01:23:43;;;;;;;;;;;8.70;99.90;;;;;;5057195;28;20256;-73
2022/04/27 01:26:08;;;;;;;;;;;8.70;99.90;;;;;;5057086;28;19923;-74
2022/04/27 01:28:36;;;;;;;;;;;8.70;99.90;;;;;;5025037;28;19917;-73
2022/04/27 01:31:04;;;;;;;;;;;8.60;99.90;;;;;;5056850;28;19921;-74
2022/04/27 01:33:30;;;;;;;;;;;8.70;99.90;;;;;;5040424;28;19909;-72
2022/04/27 01:35:56;;;;;;;;;;;8.70;99.90;;;;;;5056546;28;20020;-71
2022/04/27 01:38:22;;;;;;;;;;;8.70;99.90;;;;;;5024926;28;20147;-71
2022/04/27 01:40:48;;;;;;;;;;;8.70;99.90;;;;;;5024788;28;19913;-71
2022/04/27 01:43:16;;;;;;;;;;;8.60;99.90;;;;;;5024942;28;19913;-71
2022/04/27 01:45:43;;;;;;;;;;;8.70;99.90;;;;;;5024801;28;19937;-72
2022/04/27 01:48:10;;;;;;;;;;;8.70;99.90;;;;;;5039902;28;19916;-72
2022/04/27 01:50:36;;;;;;;;;;;8.60;99.90;;;;;;5024179;28;19945;-73
2022/04/27 01:55:46;;;;;;;;;;;8.70;99.90;;;;;;5023917;28;19917;-72
2022/04/27 01:58:11;;;;;;;;;;;8.70;99.90;;;;;;5056476;28;19981;-72
2022/04/27 02:00:38;;;;;;;;;;;8.80;99.90;;;;;;5024235;28;19910;-72
2022/04/27 02:03:03;;;;;;;;;;;8.80;99.90;;;;;;5024252;28;20119;-73
2022/04/27 02:05:29;;;;;;;;;;;8.70;99.90;;;;;;5023960;28;19957;-72
2022/04/27 02:07:55;;;;;;;;;;;8.70;99.90;;;;;;5024009;28;20093;-72
2022/04/27 02:10:20;;;;;;;;;;;8.60;99.90;;;;;;5024234;28;19959;-73
2022/04/27 02:12:46;;;;;;;;;;;8.60;99.90;;;;;;5022711;28;19910;-73
2022/04/27 02:15:12;;;;;;;;;;;8.60;99.90;;;;;;5024216;28;20271;-73
2022/04/27 02:17:37;;;;;;;;;;;8.60;99.90;;;;;;5024113;28;19909;-72
2022/04/27 02:20:04;;;;;;;;;;;8.70;99.90;;;;;;5024192;28;19909;-73
2022/04/27 02:22:32;;;;;;;;;;;8.70;99.90;;;;;;5055218;28;19984;-73
2022/04/27 02:24:58;;;;;;;;;;;8.70;99.90;;;;;;5055709;28;19909;-73
2022/04/27 02:27:24;;;;;;;;;;;8.70;99.90;;;;;;5024068;28;20152;-72
2022/04/27 02:29:50;;;;;;;;;;;8.70;99.90;;;;;;5023715;28;19964;-73
2022/04/27 02:32:15;;;;;;;;;;;8.70;99.90;;;;;;5023782;28;19916;-76
2022/04/27 02:34:42;;;;;;;;;;;8.80;99.90;;;;;;5024114;28;19909;-76
2022/04/27 02:37:08;;;;;;;;;;;8.80;99.90;;;;;;5023606;28;19913;-74
2022/04/27 02:39:33;;;;;;;;;;;8.80;99.90;;;;;;5023897;28;19917;-74
2022/04/27 02:41:59;;;;;;;;;;;8.80;99.90;;;;;;5023446;28;20235;-75
2022/04/27 02:44:25;;;;;;;;;;;8.90;99.90;;;;;;5023728;28;19925;-71
2022/04/27 02:46:50;;;;;;;;;;;8.90;99.90;;;;;;5023776;28;19932;-74
2022/04/27 02:52:00;;;;;;;;;;;8.90;99.90;;;;;;5022388;28;20177;-71
2022/04/27 02:54:26;;;;;;;;;;;8.90;99.90;;;;;;5023367;28;19909;-71
2022/04/27 02:56:51;;;;;;;;;;;8.80;99.90;;;;;;5023564;28;19909;-73
2022/04/27 02:59:17;;;;;;;;;;;8.90;99.90;;;;;;5023465;28;20231;-73
2022/04/27 03:01:43;;;;;;;;;;;8.80;99.90;;;;;;5023223;28;19937;-74
2022/04/27 03:04:09;;;;;;;;;;;8.80;99.90;;;;;;5022273;28;19980;-76
2022/04/27 03:06:34;;;;;;;;;;;8.80;99.90;;;;;;5022479;28;19925;-76
2022/04/27 03:09:00;;;;;;;;;;;8.80;99.90;;;;;;5021392;28;19910;-76
2022/04/27 03:11:26;;;;;;;;;;;8.80;99.90;;;;;;5023098;28;19913;-76
2022/04/27 03:13:51;;;;;;;;;;;8.70;99.90;;;;;;5023750;28;19977;-76
2022/04/27 03:16:17;;;;;;;;;;;8.70;99.90;;;;;;5023530;28;20104;-76
2022/04/27 03:18:43;;;;;;;;;;;8.60;99.90;;;;;;5023326;28;19909;-73
2022/04/27 03:21:09;;;;;;;;;;;8.60;99.90;;;;;;5022808;28;20327;-73
2022/04/27 03:23:35;;;;;;;;;;;8.50;99.90;;;;;;5038427;28;19909;-73
2022/04/27 03:26:01;;;;;;;;;;;8.60;99.90;;;;;;5016635;28;20116;-73
2022/04/27 03:28:26;;;;;;;;;;;8.60;99.90;;;;;;5023337;28;19921;-73
2022/04/27 03:30:52;;;;;;;;;;;8.50;99.90;;;;;;5059598;28;20090;-75
2022/04/27 03:33:18;;;;;;;;;;;8.60;99.90;;;;;;5027468;28;19955;-72
2022/04/27 03:35:44;;;;;;;;;;;8.60;99.90;;;;;;5027223;28;19917;-72
2022/04/27 03:38:10;;;;;;;;;;;8.60;99.90;;;;;;5042291;28;20016;-73
2022/04/27 03:40:36;;;;;;;;;;;8.60;99.90;;;;;;5023669;28;20058;-73
2022/04/27 03:43:02;;;;;;;;;;;8.60;99.90;;;;;;5054636;28;19981;-74
2022/04/27 03:45:28;;;;;;;;;;;8.60;99.90;;;;;;5054629;28;19909;-73
2022/04/27 03:47:54;;;;;;;;;;;8.60;99.90;;;;;;5054623;28;19981;-73
2022/04/27 03:50:20;;;;;;;;;;;8.60;99.90;;;;;;5022346;28;19955;-73
2022/04/27 03:52:45;;;;;;;;;;;8.50;99.90;;;;;;5022371;28;19909;-73
2022/04/27 03:55:12;;;;;;;;;;;8.50;99.90;;;;;;5022551;28;19909;-73
2022/04/27 03:57:37;;;;;;;;;;;8.40;99.90;;;;;;5054425;28;19968;-73
2022/04/27 04:00:04;;;;;;;;;;;8.40;99.90;;;;;;5022596;28;19909;-73
2022/04/27 04:02:30;;;;;;;;;;;8.40;99.90;;;;;;5053993;28;19992;-71
2022/04/27 04:04:56;;;;;;;;;;;8.40;99.90;;;;;;5022119;28;19909;-72
2022/04/27 04:07:21;;;;;;;;;;;8.30;99.90;;;;;;5021889;28;19980;-73
2022/04/27 04:09:47;;;;;;;;;;;8.30;99.90;;;;;;5054392;28;20094;-73
2022/04/27 04:12:13;;;;;;;;;;;8.30;99.90;;;;;;5022677;28;19916;-75
2022/04/27 04:14:39;;;;;;;;;;;8.40;99.90;;;;;;5037711;28;19956;-75
2022/04/27 04:17:05;;;;;;;;;;;8.40;99.90;;;;;;5022087;28;19980;-71
2022/04/27 04:19:32;;;;;;;;;;;8.30;99.90;;;;;;5024025;28;19920;-71
2022/04/27 04:21:59;;;;;;;;;;;8.40;99.90;;;;;;5025838;28;19916;-71
2022/04/27 04:24:25;;;;;;;;;;;8.40;99.90;;;;;;5024787;28;19921;-71
2022/04/27 04:29:35;;;;;;;;;;;8.40;99.90;;;;;;5026046;28;20020;-72
2022/04/27 04:32:01;;;;;;;;;;;8.50;99.90;;;;;;5026026;28;19921;-75
2022/04/27 04:34:26;;;;;;;;;;;8.50;99.90;;;;;;5024871;28;20147;-77
2022/04/27 04:36:52;;;;;;;;;;;8.50;99.90;;;;;;5057947;28;19941;-77
2022/04/27 04:39:18;;;;;;;;;;;8.60;99.90;;;;;;5025856;28;19917;-74
2022/04/27 04:41:44;;;;;;;;;;;8.50;99.90;;;;;;5023744;28;19909;-74
2022/04/27 04:44:09;;;;;;;;;;;8.60;99.90;;;;;;5021126;28;19978;-74
2022/04/27 04:46:35;;;;;;;;;;;8.60;99.90;;;;;;5021831;28;19913;-75
2022/04/27 04:49:01;;;;;;;;;;;8.70;99.90;;;;;;5057734;28;19988;-75
2022/04/27 04:51:26;;;;;;;;;;;8.70;99.90;;;;;;5057036;28;19913;-74
2022/04/27 04:53:52;;;;;;;;;;;8.70;99.90;;;;;;5025627;28;19956;-77
2022/04/27 04:56:18;;;;;;;;;;;8.70;99.90;;;;;;5024552;28;20124;-77
2022/04/27 04:58:43;;;;;;;;;;;8.70;99.90;;;;;;5024662;28;19910;-77
2022/04/27 05:01:09;;;;;;;;;;;8.70;99.90;;;;;;5021309;28;19922;-77
2022/04/27 05:03:37;;;;;;;;;;;8.70;99.90;;;;;;5018895;28;19948;-77
2022/04/27 05:06:03;;;;;;;;;;;8.70;99.90;;;;;;5024935;28;19918;-76
2022/04/27 05:08:28;;;;;;;;;;;8.70;99.90;;;;;;5057134;28;20251;-76
2022/04/27 05:10:54;;;;;;;;;;;8.70;99.90;;;;;;5057301;28;19925;-77
2022/04/27 05:13:20;;;;;;;;;;;8.70;99.90;;;;;;5025497;28;20252;-77
2022/04/27 05:15:46;;;;;;;;;;;8.70;99.90;;;;;;5040571;28;20196;-76
2022/04/27 05:18:11;;;;;;;;;;;8.80;99.90;;;;;;5040681;28;19916;-77
2022/04/27 05:20:38;;;;;;;;;;;8.90;99.90;;;;;;5024579;28;20144;-74
2022/04/27 05:23:05;;;;;;;;;;;8.90;99.90;;;;;;5056577;28;19917;-76
2022/04/27 05:25:31;;;;;;;;;;;9.00;99.90;;;;;;5039694;28;19945;-76
2022/04/27 05:27:57;;;;;;;;;;;9.00;99.90;;;;;;5023556;28;19917;-75
2022/04/27 05:33:07;;;;;;;;;;;9.00;99.90;;;;;;5024898;28;19947;-76
2022/04/27 05:35:39;;;;;;;;;;;9.10;99.90;;;;;;5024688;28;19909;-73
2022/04/27 05:38:05;;;;;;;;;;;9.20;99.90;;;;;;5040098;28;19954;-75
2022/04/27 05:40:30;;;;;;;;;;;9.10;99.90;;;;;;5007280;28;20146;-75
2022/04/27 05:42:57;;;;;;;;;;;9.20;99.90;;;;;;5056471;28;19913;-76
2022/04/27 05:45:23;;;;;;;;;;;9.10;99.90;;;;;;5024769;28;19916;-75
2022/04/27 05:47:49;;;;;;;;;;;9.10;99.90;;;;;;5023524;28;19917;-75
2022/04/27 05:50:15;;;;;;;;;;;9.20;99.90;;;;;;5024571;28;19980;-75
2022/04/27 05:52:56;;;;;;;;;;;9.30;99.90;;;;;;5024092;28;19956;-75
2022/04/27 05:55:25;;;;;;;;;;;9.40;99.90;;;;;;5023427;28;19941;-75
2022/04/27 05:57:50;;;;;;;;;;;9.40;99.90;;;;;;5023354;28;20204;-75
2022/04/27 06:00:16;;;;;;;;;;;9.30;99.90;;;;;;5056408;28;19913;-75
2022/04/27 06:02:43;;;;;;;;;;;9.40;99.90;;;;;;5039682;28;19910;-75
2022/04/27 06:05:08;;;;;;;;;;;9.40;99.90;;;;;;5024884;28;19984;-75
2022/04/27 06:07:38;;;;;;;;;;;9.40;99.90;;;;;;5056089;28;19917;-75
2022/04/27 06:10:07;;;;;;;;;;;9.40;99.90;;;;;;5055509;28;19920;-75
2022/04/27 06:12:37;;;;;;;;;;;9.40;99.90;;;;;;5023928;28;19913;-76
2022/04/27 06:15:10;;;;;;;;;;;9.50;99.90;;;;;;5055318;28;19910;-75
2022/04/27 06:17:35;;;;;;;;;;;9.50;99.90;;;;;;5038984;28;19963;-76
2022/04/27 06:20:02;;;;;;;;;;;9.50;99.90;;;;;;5056504;28;19909;-76
2022/04/27 06:22:28;;;;;;;;;;;9.50;99.90;;;;;;5023584;28;19909;-76
2022/04/27 06:24:54;;;;;;;;;;;9.60;99.90;;;;;;5022928;28;19916;-75
2022/04/27 06:27:19;;;;;;;;;;;9.60;99.90;;;;;;5023888;28;19917;-76
2022/04/27 06:29:45;;;;;;;;;;;9.60;99.90;;;;;;5023772;28;19960;-76
2022/04/27 06:32:11;;;;;;;;;;;9.60;99.90;;;;;;5022559;28;19955;-75
2022/04/27 06:34:37;;;;;;;;;;;9.70;99.90;;;;;;5023572;28;19909;-75
2022/04/27 06:37:02;;;;;;;;;;;9.80;99.90;;;;;;5023576;28;19909;-75
2022/04/27 06:39:28;;;;;;;;;;;9.80;99.90;;;;;;5023817;28;19916;-75
2022/04/27 06:41:54;;;;;;;;;;;9.80;99.90;;;;;;5023527;28;19917;-76
2022/04/27 06:44:19;;;;;;;;;;;9.80;99.90;;;;;;5023402;28;19996;-76
2022/04/27 06:46:45;;;;;;;;;;;9.80;99.90;;;;;;5023759;28;19925;-76
2022/04/27 06:49:11;;;;;;;;;;;9.80;99.90;;;;;;5022494;28;20140;-76
2022/04/27 06:51:37;;;;;;;;;;;9.80;99.90;;;;;;5023034;28;19920;-75
2022/04/27 06:54:03;;;;;;;;;;;9.90;99.90;;;;;;5022414;28;19960;-76
2022/04/27 06:56:29;;;;;;;;;;;10.10;99.90;;;;;;5038738;28;19980;-75
2022/04/27 06:58:55;;;;;;;;;;;10.20;99.90;;;;;;5023592;28;19909;-76
2022/04/27 07:01:21;;;;;;;;;;;10.40;99.90;;;;;;5023168;28;19909;-75
2022/04/27 07:03:46;;;;;;;;;;;10.70;99.90;;;;;;5055314;28;19973;-76
2022/04/27 07:06:13;;;;;;;;;;;11.00;99.90;;;;;;5022968;28;19909;-75
2022/04/27 07:08:38;;;;;;;;;;;11.20;99.90;;;;;;5021725;28;20109;-76
2022/04/27 07:11:04;;;;;;;;;;;11.20;99.70;;;;;;5022830;28;19928;-76
2022/04/27 07:13:30;;;;;;;;;;;11.20;99.90;;;;;;5023245;28;19917;-76
2022/04/27 07:16:00;;;;;;;;;;;11.20;99.90;;;;;;5055030;28;19917;-76
2022/04/27 07:18:29;;;;;;;;;;;11.30;99.90;;;;;;5023208;28;19909;-76
2022/04/27 07:20:55;;;;;;;;;;;11.30;99.80;;;;;;5021343;28;19959;-76
2022/04/27 07:23:20;;;;;;;;;;;11.20;99.90;;;;;;5054913;28;20109;-76
2022/04/27 07:25:46;;;;;;;;;;;11.30;99.90;;;;;;5038463;28;19909;-75
2022/04/27 07:28:12;;;;;;;;;;;11.50;98.50;;;;;;5022923;28;19914;-76
2022/04/27 07:30:38;;;;;;;;;;;11.50;98.60;;;;;;5022593;28;19913;-76
2022/04/27 07:33:04;;;;;;;;;;;11.40;99.00;;;;;;5054949;28;19956;-76
2022/04/27 07:35:30;;;;;;;;;;;11.40;99.40;;;;;;5055018;28;19918;-75
2022/04/27 07:37:55;;;;;;;;;;;11.50;99.10;;;;;;5038279;28;19917;-75
2022/04/27 07:40:21;;;;;;;;;;;11.70;98.70;;;;;;5022755;28;20201;-76
2022/04/27 07:42:48;;;;;;;;;;;11.70;99.40;;;;;;5037702;28;19910;-75
2022/04/27 07:45:14;;;;;;;;;;;11.70;99.40;;;;;;5054332;28;20298;-76
2022/04/27 07:47:43;;;;;;;;;;;11.90;98.70;;;;;;5037948;28;19988;-76
2022/04/27 07:50:16;;;;;;;;;;;12.10;98.80;;;;;;5054668;28;19992;-76
2022/04/27 07:52:42;;;;;;;;;;;12.20;98.00;;;;;;5021041;28;20197;-76
2022/04/27 07:55:08;;;;;;;;;;;12.40;98.20;;;;;;5022178;28;19956;-76
2022/04/27 07:57:34;;;;;;;;;;;12.60;97.50;;;;;;5037729;28;19909;-76
2022/04/27 08:00:00;;;;;;;;;;;12.70;96.90;;;;;;5054544;28;19943;-76
2022/04/27 08:02:26;;;;;;;;;;;12.80;96.40;;;;;;5054369;28;19916;-76
2022/04/27 08:04:51;;;;;;;;;;;12.70;97.00;;;;;;5037828;28;19909;-75
2022/04/27 08:07:17;;;;;;;;;;;12.70;95.90;;;;;;5036635;28;19909;-76
2022/04/27 08:09:43;;;;;;;;;;;12.60;96.00;;;;;;5054406;28;19909;-76
2022/04/27 08:12:09;;;;;;;;;;;12.70;95.20;;;;;;5022242;28;20000;-76
2022/04/27 08:14:36;;;;;;;;;;;12.60;95.60;;;;;;5054373;28;20204;-76
2022/04/27 08:17:02;;;;;;;;;;;12.70;95.60;;;;;;5022397;28;19937;-76
2022/04/27 08:19:28;;;;;;;;;;;12.60;95.90;;;;;;5037713;28;20247;-75
2022/04/27 08:21:57;;;;;;;;;;;12.80;94.60;;;;;;5037055;28;19909;-75
2022/04/27 08:24:24;;;;;;;;;;;12.60;95.30;;;;;;5021277;28;20032;-76
2022/04/27 08:26:50;;;;;;;;;;;12.40;95.40;;;;;;5021465;28;19910;-76
2022/04/27 08:29:16;;;;;;;;;;;12.60;94.60;;;;;;5037487;28;19913;-75
2022/04/27 08:31:42;;;;;;;;;;;12.60;94.10;;;;;;5022048;28;19920;-76
2022/04/27 08:34:08;;;;;;;;;;;12.70;95.30;;;;;;5022478;28;19910;-76
2022/04/27 08:36:33;;;;;;;;;;;13.00;95.10;;;;;;5054361;28;20028;-75
2022/04/27 08:39:00;;;;;;;;;;;13.20;95.30;;;;;;5020955;28;19979;-75
2022/04/27 08:41:28;;;;;;;;;;;13.60;93.20;;;;;;5037533;28;19909;-76
2022/04/27 08:43:55;;;;;;;;;;;13.80;93.10;;;;;;5037141;28;19960;-76
2022/04/27 08:46:20;;;;;;;;;;;13.80;92.90;;;;;;5037592;28;19916;-76
2022/04/27 08:48:47;;;;;;;;;;;14.00;92.50;;;;;;5037497;28;19977;-76
2022/04/27 08:51:13;;;;;;;;;;;14.30;91.90;;;;;;5020747;28;20216;-76
2022/04/27 08:53:39;;;;;;;;;;;14.30;91.40;;;;;;5021951;28;19910;-75
2022/04/27 08:56:04;;;;;;;;;;;14.40;90.70;;;;;;5054086;28;19921;-76
2022/04/27 08:58:30;;;;;;;;;;;14.50;90.80;;;;;;5053991;28;19913;-75
2022/04/27 09:00:56;;;;;;;;;;;14.50;91.70;;;;;;5020849;28;19910;-76
2022/04/27 09:03:25;;;;;;;;;;;14.60;90.80;;;;;;5021021;28;20342;-76
2022/04/27 09:06:00;;;;;;;;;;;14.60;89.20;;;;;;5021341;28;19910;-76
2022/04/27 09:08:45;;;;;;;;;;;14.60;90.00;;;;;;5054756;28;19916;-76
2022/04/27 09:11:17;;;;;;;;;;;14.50;90.60;;;;;;5052225;28;19914;-76
2022/04/27 09:13:50;;;;;;;;;;;14.50;90.00;;;;;;5040278;28;19917;-76
2022/04/27 09:16:18;;;;;;;;;;;14.70;91.00;;;;;;5057264;28;20127;-76
2022/04/27 09:22:04;;;;;;;;;;;14.70;87.90;;;;;;5052458;28;19917;-76
2022/04/27 09:24:49;;;;;;;;;;;14.60;88.70;;;;;;5024000;28;19940;-76
2022/04/27 09:27:18;;;;;;;;;;;14.60;88.70;;;;;;5057550;28;19923;-76
2022/04/27 09:29:57;;;;;;;;;;;14.50;88.30;;;;;;5040248;28;19947;-76
2022/04/27 09:32:22;;;;;;;;;;;14.40;88.30;;;;;;5057513;28;19914;-76
2022/04/27 09:34:49;;;;;;;;;;;14.20;88.80;;;;;;5024180;28;19987;-76
2022/04/27 09:37:16;;;;;;;;;;;14.10;89.90;;;;;;5040214;28;19993;-76
2022/04/27 09:39:46;;;;;;;;;;;14.20;88.60;;;;;;5025522;28;19936;-76
2022/04/27 09:42:14;;;;;;;;;;;14.40;88.90;;;;;;5023966;28;19920;-77
2022/04/27 09:44:40;;;;;;;;;;;14.60;90.40;;;;;;5024221;28;20128;-76
2022/04/27 09:47:06;;;;;;;;;;;14.90;91.20;;;;;;5056784;28;20093;-76
2022/04/27 09:49:36;;;;;;;;;;;14.80;89.40;;;;;;5057077;28;19964;-76
2022/04/27 09:52:04;;;;;;;;;;;14.90;89.00;;;;;;5056331;28;20201;-76
2022/04/27 09:54:30;;;;;;;;;;;15.00;88.60;;;;;;5056943;28;19924;-76
2022/04/27 09:57:01;;;;;;;;;;;15.00;89.30;;;;;;5024248;28;19910;-77
2022/04/27 09:59:35;;;;;;;;;;;15.10;87.60;;;;;;5025062;28;19917;-77
2022/04/27 10:02:01;;;;;;;;;;;15.20;88.10;;;;;;5039662;28;19909;-75
2022/04/27 10:04:31;;;;;;;;;;;15.10;85.50;;;;;;5024585;28;20156;-75
2022/04/27 10:07:00;;;;;;;;;;;15.20;85.80;;;;;;5054688;28;19909;-74
2022/04/27 10:09:29;;;;;;;;;;;15.40;84.60;;;;;;5039582;28;19937;-74
2022/04/27 10:11:59;;;;;;;;;;;15.40;81.40;;;;;;5039423;28;19984;-74
2022/04/27 10:14:28;;;;;;;;;;;15.20;81.70;;;;;;5056734;28;20163;-74
2022/04/27 10:16:54;;;;;;;;;;;15.20;84.20;;;;;;5055986;28;19921;-74
2022/04/27 10:19:20;;;;;;;;;;;15.20;84.30;;;;;;5039835;28;20350;-75
2022/04/27 10:21:59;;;;;;;;;;;15.20;85.60;;;;;;5039683;28;19910;-75
2022/04/27 10:24:34;;;;;;;;;;;15.10;86.00;;;;;;5038374;28;19918;-74
2022/04/27 10:27:18;;;;;;;;;;;15.20;86.30;;;;;;5024447;28;19917;-74
2022/04/27 10:30:08;;;;;;;;;;;15.20;84.30;;;;;;5023315;28;20241;-75
2022/04/27 10:32:36;;;;;;;;;;;15.20;85.40;;;;;;5023337;28;19909;-75
2022/04/27 10:35:11;;;;;;;;;;;15.20;85.40;;;;;;5023721;28;19917;-75
2022/04/27 10:37:50;;;;;;;;;;;15.20;85.30;;;;;;5023144;28;19909;-74
2022/04/27 10:40:42;;;;;;;;;;;15.10;86.10;;;;;;5024484;28;19941;-74
2022/04/27 10:43:08;;;;;;;;;;;15.10;86.40;;;;;;5024243;28;19910;-74
2022/04/27 10:45:34;;;;;;;;;;;15.20;85.20;;;;;;5024430;28;20104;-75
2022/04/27 10:48:03;;;;;;;;;;;15.20;84.60;;;;;;5056551;28;19924;-75
2022/04/27 10:50:30;;;;;;;;;;;15.20;84.30;;;;;;5055716;28;19996;-74
2022/04/27 10:52:58;;;;;;;;;;;15.40;83.40;;;;;;5055704;28;19968;-74
2022/04/27 10:55:35;;;;;;;;;;;15.40;83.70;;;;;;5023909;28;19913;-75
2022/04/27 10:58:30;;;;;;;;;;;15.80;80.00;;;;;;5022796;28;19924;-74
2022/04/27 11:01:02;;;;;;;;;;;16.00;80.50;;;;;;5023913;28;19936;-75
2022/04/27 11:03:31;;;;;;;;;;;16.40;76.00;;;;;;5023643;28;19948;-75
2022/04/27 11:05:58;;;;;;;;;;;16.50;74.30;;;;;;5023957;28;19910;-75
2022/04/27 11:08:32;;;;;;;;;;;17.00;76.40;;;;;;5038051;28;19972;-76
2022/04/27 11:11:02;;;;;;;;;;;17.40;73.00;;;;;;5023606;28;19992;-74
2022/04/27 11:13:30;;;;;;;;;;;17.90;73.40;;;;;;5056508;28;20209;-75
2022/04/27 11:16:12;;;;;;;;;;;18.20;71.10;;;;;;5022838;28;19920;-75
2022/04/27 11:18:50;;;;;;;;;;;18.40;68.00;;;;;;5038392;28;20147;-76
2022/04/27 11:21:17;;;;;;;;;;;18.30;63.90;;;;;;5038855;28;19940;-76
2022/04/27 11:23:43;;;;;;;;;;;18.20;62.40;;;;;;5024146;28;19940;-76
2022/04/27 11:26:08;;;;;;;;;;;18.00;60.70;;;;;;5038922;28;20144;-75
2022/04/27 11:28:35;;;;;;;;;;;17.60;61.70;;;;;;5022254;28;19921;-75
2022/04/27 11:31:01;;;;;;;;;;;17.30;63.60;;;;;;5038565;28;19988;-75
2022/04/27 11:33:27;;;;;;;;;;;17.00;64.90;;;;;;5023250;28;19917;-75
2022/04/27 11:35:53;;;;;;;;;;;16.60;67.70;;;;;;5038512;28;19915;-75
2022/04/27 11:38:21;;;;;;;;;;;16.30;69.50;;;;;;5021767;28;19941;-76
2022/04/27 11:40:49;;;;;;;;;;;16.30;69.50;;;;;;5021947;28;19917;-75
2022/04/27 11:43:25;;;;;;;;;;;16.00;70.70;;;;;;5054622;28;20124;-76
2022/04/27 11:45:51;;;;;;;;;;;16.00;69.90;;;;;;5054316;28;19917;-77
2022/04/27 11:48:18;;;;;;;;;;;16.00;72.70;;;;;;5038476;28;19909;-76
2022/04/27 11:50:44;;;;;;;;;;;16.20;71.20;;;;;;5021734;28;19913;-76
2022/04/27 11:53:11;;;;;;;;;;;16.40;68.00;;;;;;5021902;28;20124;-76
2022/04/27 11:55:38;;;;;;;;;;;16.50;68.00;;;;;;5055120;28;20250;-77
2022/04/27 11:58:05;;;;;;;;;;;16.40;68.30;;;;;;5023064;28;19909;-76
2022/04/27 12:00:31;;;;;;;;;;;16.70;67.00;;;;;;5021479;28;19917;-76
2022/04/27 12:03:03;;;;;;;;;;;16.60;65.20;;;;;;5021755;28;19909;-77
2022/04/27 12:05:36;;;;;;;;;;;16.70;64.40;;;;;;5023132;28;20225;-76
2022/04/27 12:08:07;;;;;;;;;;;16.50;65.30;;;;;;5020877;28;19932;-75
2022/04/27 12:10:39;;;;;;;;;;;16.40;68.20;;;;;;5021647;28;19913;-75
2022/04/27 12:13:06;;;;;;;;;;;16.50;67.20;;;;;;5055160;28;19921;-76
2022/04/27 12:15:31;;;;;;;;;;;16.50;68.70;;;;;;5021958;28;19980;-76
2022/04/27 12:17:57;;;;;;;;;;;16.60;68.00;;;;;;5005484;28;19916;-76
2022/04/27 12:20:37;;;;;;;;;;;16.70;66.50;;;;;;5055098;28;19916;-76
2022/04/27 12:23:05;;;;;;;;;;;16.60;68.90;;;;;;5022833;28;20148;-76
2022/04/27 12:25:58;;;;;;;;;;;16.70;69.70;;;;;;5054826;28;20109;-76
2022/04/27 12:28:40;;;;;;;;;;;17.00;68.50;;;;;;5021106;28;19972;-76
2022/04/27 12:31:07;;;;;;;;;;;17.70;65.60;;;;;;5035741;28;20240;-76
2022/04/27 12:33:59;;;;;;;;;;;18.80;59.40;;;;;;5022179;28;19975;-77
2022/04/27 12:39:25;;;;;;;;;;;20.80;54.10;;;;;;5036146;28;20227;-77
2022/04/27 12:41:52;;;;;;;;;;;20.50;53.60;;;;;;5026934;28;19909;-77
2022/04/27 12:44:25;;;;;;;;;;;20.30;51.80;;;;;;5025973;28;20193;-76
2022/04/27 12:46:54;;;;;;;;;;;19.60;53.50;;;;;;5057933;28;20204;-76
2022/04/27 12:49:30;;;;;;;;;;;18.90;55.40;;;;;;5058536;28;19918;-76
2022/04/27 12:52:12;;;;;;;;;;;18.50;57.30;;;;;;5041370;28;19914;-76
2022/04/27 12:54:38;;;;;;;;;;;17.90;59.80;;;;;;5058386;28;19956;-76
2022/04/27 12:57:03;;;;;;;;;;;17.30;59.70;;;;;;5058287;28;19910;-77
2022/04/27 12:59:29;;;;;;;;;;;16.90;61.90;;;;;;5058353;28;20152;-76
2022/04/27 13:01:58;;;;;;;;;;;16.50;66.00;;;;;;5026079;28;19917;-76
2022/04/27 13:04:24;;;;;;;;;;;16.20;69.40;;;;;;5026118;28;19916;-76
2022/04/27 13:06:51;;;;;;;;;;;16.00;69.50;;;;;;5058117;28;19917;-76
2022/04/27 13:12:01;;;;;;;;;;;16.00;68.10;;;;;;5024745;28;19960;-76
2022/04/27 13:14:27;;;;;;;;;;;16.00;67.20;;;;;;5026006;28;19921;-76
2022/04/27 13:16:53;;;;;;;;;;;15.90;67.30;;;;;;5026030;28;20205;-76
2022/04/27 13:19:19;;;;;;;;;;;15.80;67.30;;;;;;5025668;28;19976;-76
2022/04/27 13:21:45;;;;;;;;;;;15.60;65.80;;;;;;5026339;28;19924;-76
2022/04/27 13:24:11;;;;;;;;;;;15.50;68.80;;;;;;5058184;28;19937;-76
2022/04/27 13:26:37;;;;;;;;;;;15.50;68.00;;;;;;5025297;28;19909;-76
2022/04/27 13:29:03;;;;;;;;;;;15.60;66.30;;;;;;5026475;28;20196;-76
2022/04/27 13:31:30;;;;;;;;;;;15.80;67.10;;;;;;5040970;28;19987;-76
2022/04/27 13:33:55;;;;;;;;;;;15.90;67.10;;;;;;5058185;28;20120;-76
2022/04/27 13:36:21;;;;;;;;;;;15.80;67.70;;;;;;5026284;28;19909;-76
2022/04/27 13:38:47;;;;;;;;;;;16.00;67.00;;;;;;5058120;28;19911;-76
2022/04/27 13:41:13;;;;;;;;;;;16.10;67.30;;;;;;5026108;28;19910;-76
2022/04/27 13:43:38;;;;;;;;;;;16.30;65.40;;;;;;5025537;28;19910;-76
2022/04/27 13:46:07;;;;;;;;;;;16.40;65.80;;;;;;5025020;28;20230;-76
2022/04/27 13:48:33;;;;;;;;;;;16.50;65.00;;;;;;5024931;28;19910;-76
2022/04/27 13:51:00;;;;;;;;;;;16.60;64.10;;;;;;5025004;28;19921;-77
2022/04/27 13:53:35;;;;;;;;;;;16.70;64.70;;;;;;5057071;28;20108;-76
2022/04/27 13:56:00;;;;;;;;;;;17.00;64.10;;;;;;5024449;28;20235;-76
2022/04/27 13:58:28;;;;;;;;;;;17.10;62.80;;;;;;5041131;28;19984;-76
2022/04/27 14:00:54;;;;;;;;;;;17.40;63.80;;;;;;5024363;28;19909;-76
2022/04/27 14:03:19;;;;;;;;;;;17.60;62.70;;;;;;5040640;28;20024;-76
2022/04/27 14:05:46;;;;;;;;;;;18.00;62.20;;;;;;5025658;28;19916;-76
2022/04/27 14:08:12;;;;;;;;;;;19.00;60.30;;;;;;5024360;28;20148;-76
2022/04/27 14:10:38;;;;;;;;;;;19.60;57.30;;;;;;5025212;28;19914;-76
2022/04/27 14:13:17;;;;;;;;;;;19.70;54.70;;;;;;5057471;28;20021;-76
2022/04/27 14:18:29;;;;;;;;;;;20.10;53.40;;;;;;5052211;28;19917;-76
2022/04/27 14:20:54;;;;;;;;;;;20.20;52.20;;;;;;5023859;28;19921;-77
2022/04/27 14:23:20;;;;;;;;;;;19.90;52.20;;;;;;5023919;28;19909;-76
2022/04/27 14:25:47;;;;;;;;;;;19.60;53.30;;;;;;5024962;28;20081;-76
2022/04/27 14:28:16;;;;;;;;;;;19.40;52.90;;;;;;5023547;28;19917;-76
2022/04/27 14:30:42;;;;;;;;;;;19.20;54.30;;;;;;5024391;28;20223;-76
2022/04/27 14:33:08;;;;;;;;;;;18.90;54.60;;;;;;5056616;28;19917;-76
2022/04/27 14:35:38;;;;;;;;;;;18.70;53.70;;;;;;5023473;28;19920;-76
2022/04/27 14:38:05;;;;;;;;;;;18.70;55.40;;;;;;5023302;28;19933;-76
2022/04/27 14:40:30;;;;;;;;;;;18.70;55.80;;;;;;5023213;28;19909;-76
2022/04/27 14:42:56;;;;;;;;;;;18.70;53.70;;;;;;5024552;28;20175;-76
2022/04/27 14:45:22;;;;;;;;;;;19.10;54.00;;;;;;5023866;28;19955;-76
2022/04/27 14:47:48;;;;;;;;;;;20.00;53.40;;;;;;5024174;28;19909;-77